sensor_id;sensor_type;location;lat;lon;timestamp;P1;durP1;ratioP1;P2;durP2;ratioP2
30157;SDS011;21203;-33.912;151.178;2023-04-15T00:02:12;6.78;;;1.55;;
30157;SDS011;21203;-33.912;151.178;2023-04-15T00:04:46;4.87;;;1.60;;
30157;SDS011;21203;-33.912;151.178;2023-04-15T00:07:16;3.95;;;1.57;;
30157;SDS011;21203;-33.912;151.178;2023-04-15T00:09:47;4.78;;;1.65;;
30157;SDS011;21203;-33.912;151.178;2023-04-15T00:12:19;7.35;;;1.60;;
30157;SDS011;21203;-33.912;151.178;2023-04-15T00:14:49;4.45;;;1.60;;
30157;SDS011;21203;-33.912;151.178;2023-04-15T00:17:20;3.52;;;1.60;;
30157;SDS011;21203;-33.912;151.178;2023-04-15T00:19:50;3.47;;;1.37;;
30157;SDS011;21203;-33.912;151.178;2023-04-15T00:22:21;4.50;;;1.67;;
30157;SDS011;21203;-33.912;151.178;2023-04-15T00:24:51;3.50;;;1.27;;
30157;SDS011;21203;-33.912;151.178;2023-04-15T00:27:22;3.62;;;1.30;;
30157;SDS011;21203;-33.912;151.178;2023-04-15T00:29:52;5.37;;;1.57;;
30157;SDS011;21203;-33.912;151.178;2023-04-15T00:32:23;5.80;;;1.75;;
30157;SDS011;21203;-33.912;151.178;2023-04-15T00:34:53;4.25;;;1.40;;
30157;SDS011;21203;-33.912;151.178;2023-04-15T00:37:24;4.80;;;1.25;;
30157;SDS011;21203;-33.912;151.178;2023-04-15T00:39:55;7.03;;;1.60;;
30157;SDS011;21203;-33.912;151.178;2023-04-15T00:42:25;4.87;;;1.37;;
30157;SDS011;21203;-33.912;151.178;2023-04-15T00:44:55;4.75;;;1.37;;
30157;SDS011;21203;-33.912;151.178;2023-04-15T00:47:26;5.10;;;1.17;;
30157;SDS011;21203;-33.912;151.178;2023-04-15T00:49:57;2.87;;;1.00;;
30157;SDS011;21203;-33.912;151.178;2023-04-15T00:52:28;4.62;;;1.20;;
30157;SDS011;21203;-33.912;151.178;2023-04-15T00:54:58;3.80;;;1.50;;
30157;SDS011;21203;-33.912;151.178;2023-04-15T00:57:30;3.85;;;1.40;;
30157;SDS011;21203;-33.912;151.178;2023-04-15T01:00:04;3.05;;;1.20;;
30157;SDS011;21203;-33.912;151.178;2023-04-15T01:02:35;2.15;;;1.00;;
30157;SDS011;21203;-33.912;151.178;2023-04-15T01:05:05;6.78;;;1.20;;
30157;SDS011;21203;-33.912;151.178;2023-04-15T01:07:36;5.67;;;1.40;;
30157;SDS011;21203;-33.912;151.178;2023-04-15T01:10:07;5.70;;;1.12;;
30157;SDS011;21203;-33.912;151.178;2023-04-15T01:12:37;5.25;;;1.35;;
30157;SDS011;21203;-33.912;151.178;2023-04-15T01:15:08;5.97;;;1.27;;
30157;SDS011;21203;-33.912;151.178;2023-04-15T01:17:38;2.05;;;1.00;;
30157;SDS011;21203;-33.912;151.178;2023-04-15T01:20:09;5.22;;;1.30;;
30157;SDS011;21203;-33.912;151.178;2023-04-15T01:22:41;1.80;;;0.93;;
30157;SDS011;21203;-33.912;151.178;2023-04-15T01:25:13;5.28;;;1.00;;
30157;SDS011;21203;-33.912;151.178;2023-04-15T01:27:44;3.70;;;1.20;;
30157;SDS011;21203;-33.912;151.178;2023-04-15T01:30:14;2.45;;;1.25;;
30157;SDS011;21203;-33.912;151.178;2023-04-15T01:32:45;3.00;;;1.25;;
30157;SDS011;21203;-33.912;151.178;2023-04-15T01:35:16;2.80;;;0.95;;
30157;SDS011;21203;-33.912;151.178;2023-04-15T01:37:47;3.20;;;1.12;;
30157;SDS011;21203;-33.912;151.178;2023-04-15T01:40:18;6.05;;;1.30;;
30157;SDS011;21203;-33.912;151.178;2023-04-15T01:42:48;2.67;;;1.12;;
30157;SDS011;21203;-33.912;151.178;2023-04-15T01:45:19;1.80;;;1.00;;
30157;SDS011;21203;-33.912;151.178;2023-04-15T01:47:49;4.72;;;1.30;;
30157;SDS011;21203;-33.912;151.178;2023-04-15T01:50:20;3.37;;;1.35;;
30157;SDS011;21203;-33.912;151.178;2023-04-15T01:52:51;2.10;;;1.10;;
30157;SDS011;21203;-33.912;151.178;2023-04-15T01:55:21;2.85;;;1.17;;
30157;SDS011;21203;-33.912;151.178;2023-04-15T01:57:52;2.60;;;1.05;;
30157;SDS011;21203;-33.912;151.178;2023-04-15T02:00:23;5.53;;;1.25;;
30157;SDS011;21203;-33.912;151.178;2023-04-15T02:02:53;4.33;;;1.10;;
30157;SDS011;21203;-33.912;151.178;2023-04-15T02:05:23;3.17;;;1.00;;
30157;SDS011;21203;-33.912;151.178;2023-04-15T02:07:54;2.75;;;1.10;;
30157;SDS011;21203;-33.912;151.178;2023-04-15T02:10:25;6.37;;;1.27;;
30157;SDS011;21203;-33.912;151.178;2023-04-15T02:12:55;5.08;;;0.80;;
30157;SDS011;21203;-33.912;151.178;2023-04-15T02:15:25;3.15;;;1.07;;
30157;SDS011;21203;-33.912;151.178;2023-04-15T02:17:56;4.15;;;0.90;;
30157;SDS011;21203;-33.912;151.178;2023-04-15T02:20:27;4.00;;;1.05;;
30157;SDS011;21203;-33.912;151.178;2023-04-15T02:22:58;2.40;;;1.12;;
30157;SDS011;21203;-33.912;151.178;2023-04-15T02:28:18;1.90;;;0.80;;
30157;SDS011;21203;-33.912;151.178;2023-04-15T02:30:49;1.82;;;1.15;;
30157;SDS011;21203;-33.912;151.178;2023-04-15T02:33:20;4.00;;;1.05;;
30157;SDS011;21203;-33.912;151.178;2023-04-15T02:35:51;1.92;;;1.15;;
30157;SDS011;21203;-33.912;151.178;2023-04-15T02:38:21;5.75;;;1.35;;
30157;SDS011;21203;-33.912;151.178;2023-04-15T02:40:51;3.58;;;1.10;;
30157;SDS011;21203;-33.912;151.178;2023-04-15T02:43:23;4.08;;;1.25;;
30157;SDS011;21203;-33.912;151.178;2023-04-15T02:45:53;1.15;;;1.00;;
30157;SDS011;21203;-33.912;151.178;2023-04-15T02:48:23;2.12;;;1.00;;
30157;SDS011;21203;-33.912;151.178;2023-04-15T02:50:55;3.52;;;1.30;;
30157;SDS011;21203;-33.912;151.178;2023-04-15T02:53:41;2.37;;;1.00;;
30157;SDS011;21203;-33.912;151.178;2023-04-15T02:56:11;1.95;;;1.00;;
30157;SDS011;21203;-33.912;151.178;2023-04-15T02:58:43;2.02;;;0.93;;
30157;SDS011;21203;-33.912;151.178;2023-04-15T03:04:04;3.05;;;1.17;;
30157;SDS011;21203;-33.912;151.178;2023-04-15T03:06:35;3.77;;;0.90;;
30157;SDS011;21203;-33.912;151.178;2023-04-15T03:09:06;3.12;;;1.02;;
30157;SDS011;21203;-33.912;151.178;2023-04-15T03:11:38;3.40;;;1.10;;
30157;SDS011;21203;-33.912;151.178;2023-04-15T03:14:26;2.45;;;1.10;;
30157;SDS011;21203;-33.912;151.178;2023-04-15T03:16:56;4.28;;;1.32;;
30157;SDS011;21203;-33.912;151.178;2023-04-15T03:19:27;3.00;;;1.00;;
30157;SDS011;21203;-33.912;151.178;2023-04-15T03:21:57;2.87;;;1.20;;
30157;SDS011;21203;-33.912;151.178;2023-04-15T03:24:47;3.58;;;1.20;;
30157;SDS011;21203;-33.912;151.178;2023-04-15T03:27:17;2.42;;;1.05;;
30157;SDS011;21203;-33.912;151.178;2023-04-15T03:29:47;1.80;;;0.93;;
30157;SDS011;21203;-33.912;151.178;2023-04-15T03:32:18;2.37;;;0.80;;
30157;SDS011;21203;-33.912;151.178;2023-04-15T03:34:48;1.45;;;0.88;;
30157;SDS011;21203;-33.912;151.178;2023-04-15T03:37:19;4.05;;;1.25;;
30157;SDS011;21203;-33.912;151.178;2023-04-15T03:39:50;3.30;;;1.07;;
30157;SDS011;21203;-33.912;151.178;2023-04-15T03:42:20;3.20;;;1.27;;
30157;SDS011;21203;-33.912;151.178;2023-04-15T03:44:51;2.87;;;1.00;;
30157;SDS011;21203;-33.912;151.178;2023-04-15T03:47:22;7.75;;;1.87;;
30157;SDS011;21203;-33.912;151.178;2023-04-15T03:49:52;4.85;;;1.05;;
30157;SDS011;21203;-33.912;151.178;2023-04-15T03:52:22;3.50;;;1.10;;
30157;SDS011;21203;-33.912;151.178;2023-04-15T03:54:53;4.17;;;1.35;;
30157;SDS011;21203;-33.912;151.178;2023-04-15T03:57:23;2.27;;;1.10;;
30157;SDS011;21203;-33.912;151.178;2023-04-15T03:59:54;2.95;;;1.12;;
30157;SDS011;21203;-33.912;151.178;2023-04-15T04:02:25;3.12;;;1.05;;
30157;SDS011;21203;-33.912;151.178;2023-04-15T04:04:55;8.68;;;1.20;;
30157;SDS011;21203;-33.912;151.178;2023-04-15T04:07:26;4.58;;;1.02;;
30157;SDS011;21203;-33.912;151.178;2023-04-15T04:09:56;4.80;;;1.15;;
30157;SDS011;21203;-33.912;151.178;2023-04-15T04:12:27;2.77;;;1.10;;
30157;SDS011;21203;-33.912;151.178;2023-04-15T04:14:57;3.22;;;1.15;;
30157;SDS011;21203;-33.912;151.178;2023-04-15T04:17:27;3.27;;;1.62;;
30157;SDS011;21203;-33.912;151.178;2023-04-15T04:19:58;7.53;;;1.32;;
30157;SDS011;21203;-33.912;151.178;2023-04-15T04:22:28;5.42;;;1.15;;
30157;SDS011;21203;-33.912;151.178;2023-04-15T04:24:59;3.60;;;1.35;;
30157;SDS011;21203;-33.912;151.178;2023-04-15T04:27:38;5.75;;;1.25;;
30157;SDS011;21203;-33.912;151.178;2023-04-15T04:30:09;5.80;;;1.40;;
30157;SDS011;21203;-33.912;151.178;2023-04-15T04:32:40;4.85;;;1.25;;
30157;SDS011;21203;-33.912;151.178;2023-04-15T04:35:10;7.08;;;1.50;;
30157;SDS011;21203;-33.912;151.178;2023-04-15T04:37:40;4.83;;;1.80;;
30157;SDS011;21203;-33.912;151.178;2023-04-15T04:40:11;5.42;;;1.40;;
30157;SDS011;21203;-33.912;151.178;2023-04-15T04:42:42;3.35;;;1.10;;
30157;SDS011;21203;-33.912;151.178;2023-04-15T04:45:12;4.10;;;1.35;;
30157;SDS011;21203;-33.912;151.178;2023-04-15T04:47:43;3.35;;;1.10;;
30157;SDS011;21203;-33.912;151.178;2023-04-15T04:50:14;5.20;;;1.55;;
30157;SDS011;21203;-33.912;151.178;2023-04-15T04:52:44;2.50;;;1.22;;
30157;SDS011;21203;-33.912;151.178;2023-04-15T04:55:15;7.65;;;1.55;;
30157;SDS011;21203;-33.912;151.178;2023-04-15T04:57:46;4.92;;;1.40;;
30157;SDS011;21203;-33.912;151.178;2023-04-15T05:00:16;8.45;;;1.52;;
30157;SDS011;21203;-33.912;151.178;2023-04-15T05:02:47;6.45;;;1.30;;
30157;SDS011;21203;-33.912;151.178;2023-04-15T05:05:17;6.67;;;1.60;;
30157;SDS011;21203;-33.912;151.178;2023-04-15T05:07:48;7.20;;;1.72;;
30157;SDS011;21203;-33.912;151.178;2023-04-15T05:10:19;9.98;;;1.40;;
30157;SDS011;21203;-33.912;151.178;2023-04-15T05:12:49;4.70;;;1.42;;
30157;SDS011;21203;-33.912;151.178;2023-04-15T05:15:19;5.47;;;1.60;;
30157;SDS011;21203;-33.912;151.178;2023-04-15T05:17:50;3.33;;;1.37;;
30157;SDS011;21203;-33.912;151.178;2023-04-15T05:20:20;6.85;;;1.82;;
30157;SDS011;21203;-33.912;151.178;2023-04-15T05:22:51;5.78;;;1.30;;
30157;SDS011;21203;-33.912;151.178;2023-04-15T05:25:21;7.22;;;1.50;;
30157;SDS011;21203;-33.912;151.178;2023-04-15T05:27:52;5.92;;;1.77;;
30157;SDS011;21203;-33.912;151.178;2023-04-15T05:30:22;7.87;;;1.95;;
30157;SDS011;21203;-33.912;151.178;2023-04-15T05:32:53;8.05;;;1.65;;
30157;SDS011;21203;-33.912;151.178;2023-04-15T05:35:23;5.37;;;1.90;;
30157;SDS011;21203;-33.912;151.178;2023-04-15T05:37:54;5.85;;;1.70;;
30157;SDS011;21203;-33.912;151.178;2023-04-15T05:40:24;7.50;;;1.32;;
30157;SDS011;21203;-33.912;151.178;2023-04-15T05:42:55;5.12;;;1.55;;
30157;SDS011;21203;-33.912;151.178;2023-04-15T05:45:25;5.35;;;1.40;;
30157;SDS011;21203;-33.912;151.178;2023-04-15T05:47:55;4.72;;;1.62;;
30157;SDS011;21203;-33.912;151.178;2023-04-15T05:50:26;3.58;;;1.37;;
30157;SDS011;21203;-33.912;151.178;2023-04-15T05:52:56;6.60;;;1.85;;
30157;SDS011;21203;-33.912;151.178;2023-04-15T05:55:27;5.30;;;1.62;;
30157;SDS011;21203;-33.912;151.178;2023-04-15T05:57:58;6.30;;;1.67;;
30157;SDS011;21203;-33.912;151.178;2023-04-15T06:00:30;5.85;;;1.42;;
30157;SDS011;21203;-33.912;151.178;2023-04-15T06:03:00;4.65;;;1.57;;
30157;SDS011;21203;-33.912;151.178;2023-04-15T06:05:30;4.22;;;1.52;;
30157;SDS011;21203;-33.912;151.178;2023-04-15T06:08:20;3.87;;;1.55;;
30157;SDS011;21203;-33.912;151.178;2023-04-15T06:10:50;7.87;;;1.95;;
30157;SDS011;21203;-33.912;151.178;2023-04-15T06:13:21;3.10;;;1.37;;
30157;SDS011;21203;-33.912;151.178;2023-04-15T06:15:51;5.83;;;1.67;;
30157;SDS011;21203;-33.912;151.178;2023-04-15T06:18:22;6.70;;;1.80;;
30157;SDS011;21203;-33.912;151.178;2023-04-15T06:20:52;6.72;;;1.72;;
30157;SDS011;21203;-33.912;151.178;2023-04-15T06:23:22;5.15;;;1.80;;
30157;SDS011;21203;-33.912;151.178;2023-04-15T06:25:53;7.25;;;1.72;;
30157;SDS011;21203;-33.912;151.178;2023-04-15T06:28:23;8.20;;;1.70;;
30157;SDS011;21203;-33.912;151.178;2023-04-15T06:30:54;11.35;;;1.77;;
30157;SDS011;21203;-33.912;151.178;2023-04-15T06:33:24;7.50;;;2.08;;
30157;SDS011;21203;-33.912;151.178;2023-04-15T06:38:43;6.78;;;1.77;;
30157;SDS011;21203;-33.912;151.178;2023-04-15T06:41:14;6.92;;;1.90;;
30157;SDS011;21203;-33.912;151.178;2023-04-15T06:43:45;4.35;;;2.00;;
30157;SDS011;21203;-33.912;151.178;2023-04-15T06:46:15;7.35;;;2.00;;
30157;SDS011;21203;-33.912;151.178;2023-04-15T06:48:46;8.45;;;2.37;;
30157;SDS011;21203;-33.912;151.178;2023-04-15T06:51:16;7.90;;;2.25;;
30157;SDS011;21203;-33.912;151.178;2023-04-15T06:53:47;6.72;;;1.95;;
30157;SDS011;21203;-33.912;151.178;2023-04-15T06:56:17;8.20;;;1.95;;
30157;SDS011;21203;-33.912;151.178;2023-04-15T06:58:48;10.18;;;2.60;;
30157;SDS011;21203;-33.912;151.178;2023-04-15T07:01:19;10.90;;;2.27;;
30157;SDS011;21203;-33.912;151.178;2023-04-15T07:06:39;6.67;;;2.08;;
30157;SDS011;21203;-33.912;151.178;2023-04-15T07:09:09;7.92;;;2.30;;
30157;SDS011;21203;-33.912;151.178;2023-04-15T07:11:40;6.80;;;2.55;;
30157;SDS011;21203;-33.912;151.178;2023-04-15T07:14:10;5.42;;;2.00;;
30157;SDS011;21203;-33.912;151.178;2023-04-15T07:16:40;11.35;;;1.92;;
30157;SDS011;21203;-33.912;151.178;2023-04-15T07:19:11;8.95;;;2.65;;
30157;SDS011;21203;-33.912;151.178;2023-04-15T07:21:41;7.20;;;1.87;;
30157;SDS011;21203;-33.912;151.178;2023-04-15T07:24:12;8.93;;;1.90;;
30157;SDS011;21203;-33.912;151.178;2023-04-15T07:26:43;8.80;;;2.00;;
30157;SDS011;21203;-33.912;151.178;2023-04-15T07:29:14;7.55;;;1.98;;
30157;SDS011;21203;-33.912;151.178;2023-04-15T07:31:44;10.10;;;2.35;;
30157;SDS011;21203;-33.912;151.178;2023-04-15T07:34:14;9.40;;;2.47;;
30157;SDS011;21203;-33.912;151.178;2023-04-15T07:36:44;6.37;;;2.45;;
30157;SDS011;21203;-33.912;151.178;2023-04-15T07:39:16;6.83;;;2.17;;
30157;SDS011;21203;-33.912;151.178;2023-04-15T07:41:46;14.18;;;2.40;;
30157;SDS011;21203;-33.912;151.178;2023-04-15T07:44:17;7.28;;;2.20;;
30157;SDS011;21203;-33.912;151.178;2023-04-15T07:46:47;7.70;;;2.62;;
30157;SDS011;21203;-33.912;151.178;2023-04-15T07:49:18;10.82;;;2.00;;
30157;SDS011;21203;-33.912;151.178;2023-04-15T07:51:49;3.62;;;1.80;;
30157;SDS011;21203;-33.912;151.178;2023-04-15T07:54:19;7.42;;;2.17;;
30157;SDS011;21203;-33.912;151.178;2023-04-15T07:56:50;6.35;;;2.47;;
30157;SDS011;21203;-33.912;151.178;2023-04-15T08:02:10;9.55;;;3.47;;
30157;SDS011;21203;-33.912;151.178;2023-04-15T08:04:40;12.33;;;2.25;;
30157;SDS011;21203;-33.912;151.178;2023-04-15T08:07:10;11.25;;;2.33;;
30157;SDS011;21203;-33.912;151.178;2023-04-15T08:09:40;10.38;;;2.52;;
30157;SDS011;21203;-33.912;151.178;2023-04-15T08:12:11;10.93;;;3.15;;
30157;SDS011;21203;-33.912;151.178;2023-04-15T08:14:41;10.72;;;2.72;;
30157;SDS011;21203;-33.912;151.178;2023-04-15T08:17:12;8.25;;;2.60;;
30157;SDS011;21203;-33.912;151.178;2023-04-15T08:19:43;12.60;;;2.70;;
30157;SDS011;21203;-33.912;151.178;2023-04-15T08:22:14;11.12;;;2.70;;
30157;SDS011;21203;-33.912;151.178;2023-04-15T08:24:44;10.30;;;3.20;;
30157;SDS011;21203;-33.912;151.178;2023-04-15T08:27:14;10.08;;;3.00;;
30157;SDS011;21203;-33.912;151.178;2023-04-15T08:29:45;9.90;;;2.95;;
30157;SDS011;21203;-33.912;151.178;2023-04-15T08:32:15;9.20;;;2.67;;
30157;SDS011;21203;-33.912;151.178;2023-04-15T08:34:46;15.48;;;3.65;;
30157;SDS011;21203;-33.912;151.178;2023-04-15T08:37:16;10.03;;;2.95;;
30157;SDS011;21203;-33.912;151.178;2023-04-15T08:39:47;8.03;;;2.83;;
30157;SDS011;21203;-33.912;151.178;2023-04-15T08:42:18;9.33;;;2.67;;
30157;SDS011;21203;-33.912;151.178;2023-04-15T08:44:49;10.53;;;2.85;;
30157;SDS011;21203;-33.912;151.178;2023-04-15T08:47:20;10.68;;;3.17;;
30157;SDS011;21203;-33.912;151.178;2023-04-15T08:49:53;7.78;;;2.33;;
30157;SDS011;21203;-33.912;151.178;2023-04-15T08:52:25;10.88;;;2.70;;
30157;SDS011;21203;-33.912;151.178;2023-04-15T08:54:56;13.55;;;2.87;;
30157;SDS011;21203;-33.912;151.178;2023-04-15T08:57:27;8.80;;;2.90;;
30157;SDS011;21203;-33.912;151.178;2023-04-15T08:59:58;12.55;;;3.05;;
30157;SDS011;21203;-33.912;151.178;2023-04-15T09:02:30;6.33;;;2.65;;
30157;SDS011;21203;-33.912;151.178;2023-04-15T09:05:01;7.90;;;2.85;;
30157;SDS011;21203;-33.912;151.178;2023-04-15T09:07:35;12.15;;;3.12;;
30157;SDS011;21203;-33.912;151.178;2023-04-15T09:10:06;7.35;;;2.85;;
30157;SDS011;21203;-33.912;151.178;2023-04-15T09:12:37;7.92;;;2.70;;
30157;SDS011;21203;-33.912;151.178;2023-04-15T09:15:08;11.45;;;2.90;;
30157;SDS011;21203;-33.912;151.178;2023-04-15T09:17:43;12.50;;;3.25;;
30157;SDS011;21203;-33.912;151.178;2023-04-15T09:20:14;9.75;;;3.22;;
30157;SDS011;21203;-33.912;151.178;2023-04-15T09:22:46;11.30;;;3.40;;
30157;SDS011;21203;-33.912;151.178;2023-04-15T09:27:58;13.60;;;3.30;;
30157;SDS011;21203;-33.912;151.178;2023-04-15T09:30:29;10.10;;;3.30;;
30157;SDS011;21203;-33.912;151.178;2023-04-15T09:33:00;12.53;;;3.35;;
30157;SDS011;21203;-33.912;151.178;2023-04-15T09:35:32;9.03;;;2.80;;
30157;SDS011;21203;-33.912;151.178;2023-04-15T09:38:03;10.35;;;2.92;;
30157;SDS011;21203;-33.912;151.178;2023-04-15T09:40:35;13.20;;;2.98;;
30157;SDS011;21203;-33.912;151.178;2023-04-15T09:43:06;13.78;;;3.12;;
30157;SDS011;21203;-33.912;151.178;2023-04-15T09:45:38;9.28;;;2.95;;
30157;SDS011;21203;-33.912;151.178;2023-04-15T09:48:16;11.90;;;3.35;;
30157;SDS011;21203;-33.912;151.178;2023-04-15T09:50:52;15.23;;;3.08;;
30157;SDS011;21203;-33.912;151.178;2023-04-15T09:53:24;13.83;;;3.60;;
30157;SDS011;21203;-33.912;151.178;2023-04-15T09:55:54;12.80;;;3.20;;
30157;SDS011;21203;-33.912;151.178;2023-04-15T09:58:31;14.85;;;3.10;;
30157;SDS011;21203;-33.912;151.178;2023-04-15T10:01:03;12.53;;;2.77;;
30157;SDS011;21203;-33.912;151.178;2023-04-15T10:03:34;5.60;;;2.35;;
30157;SDS011;21203;-33.912;151.178;2023-04-15T10:06:06;12.35;;;2.98;;
30157;SDS011;21203;-33.912;151.178;2023-04-15T10:08:38;7.50;;;2.22;;
30157;SDS011;21203;-33.912;151.178;2023-04-15T10:13:57;10.80;;;2.75;;
30157;SDS011;21203;-33.912;151.178;2023-04-15T10:16:28;9.50;;;2.77;;
30157;SDS011;21203;-33.912;151.178;2023-04-15T10:19:00;11.63;;;3.10;;
30157;SDS011;21203;-33.912;151.178;2023-04-15T10:21:32;14.35;;;3.75;;
30157;SDS011;21203;-33.912;151.178;2023-04-15T10:24:05;14.68;;;3.67;;
30157;SDS011;21203;-33.912;151.178;2023-04-15T10:29:07;8.58;;;3.02;;
30157;SDS011;21203;-33.912;151.178;2023-04-15T10:31:38;8.35;;;3.08;;
30157;SDS011;21203;-33.912;151.178;2023-04-15T10:34:10;7.58;;;2.33;;
30157;SDS011;21203;-33.912;151.178;2023-04-15T10:36:41;10.68;;;2.62;;
30157;SDS011;21203;-33.912;151.178;2023-04-15T10:42:11;10.43;;;2.47;;
30157;SDS011;21203;-33.912;151.178;2023-04-15T10:44:43;13.18;;;2.60;;
30157;SDS011;21203;-33.912;151.178;2023-04-15T10:47:15;8.00;;;2.33;;
30157;SDS011;21203;-33.912;151.178;2023-04-15T10:49:57;6.72;;;2.30;;
30157;SDS011;21203;-33.912;151.178;2023-04-15T10:52:22;10.82;;;2.60;;
30157;SDS011;21203;-33.912;151.178;2023-04-15T10:55:12;8.58;;;2.95;;
30157;SDS011;21203;-33.912;151.178;2023-04-15T10:57:44;7.53;;;2.22;;
30157;SDS011;21203;-33.912;151.178;2023-04-15T11:00:14;4.85;;;1.90;;
30157;SDS011;21203;-33.912;151.178;2023-04-15T11:02:52;8.53;;;2.50;;
30157;SDS011;21203;-33.912;151.178;2023-04-15T11:06:09;7.95;;;2.60;;
30157;SDS011;21203;-33.912;151.178;2023-04-15T11:08:12;6.22;;;2.37;;
30157;SDS011;21203;-33.912;151.178;2023-04-15T11:13:15;8.68;;;2.90;;
30157;SDS011;21203;-33.912;151.178;2023-04-15T11:15:47;6.75;;;2.87;;
30157;SDS011;21203;-33.912;151.178;2023-04-15T11:20:55;7.60;;;2.52;;
30157;SDS011;21203;-33.912;151.178;2023-04-15T11:23:31;8.03;;;2.60;;
30157;SDS011;21203;-33.912;151.178;2023-04-15T11:26:03;9.73;;;2.52;;
30157;SDS011;21203;-33.912;151.178;2023-04-15T11:28:42;10.15;;;2.12;;
30157;SDS011;21203;-33.912;151.178;2023-04-15T11:31:13;6.20;;;2.45;;
30157;SDS011;21203;-33.912;151.178;2023-04-15T11:33:55;4.90;;;1.98;;
30157;SDS011;21203;-33.912;151.178;2023-04-15T11:36:27;7.67;;;1.95;;
30157;SDS011;21203;-33.912;151.178;2023-04-15T11:39:01;6.83;;;2.20;;
30157;SDS011;21203;-33.912;151.178;2023-04-15T11:41:32;7.67;;;2.37;;
30157;SDS011;21203;-33.912;151.178;2023-04-15T11:44:14;4.22;;;1.77;;
30157;SDS011;21203;-33.912;151.178;2023-04-15T11:46:35;7.95;;;1.80;;
30157;SDS011;21203;-33.912;151.178;2023-04-15T11:49:05;8.68;;;1.95;;
30157;SDS011;21203;-33.912;151.178;2023-04-15T11:51:36;8.05;;;2.27;;
30157;SDS011;21203;-33.912;151.178;2023-04-15T11:54:06;5.95;;;2.10;;
30157;SDS011;21203;-33.912;151.178;2023-04-15T11:56:37;10.35;;;2.45;;
30157;SDS011;21203;-33.912;151.178;2023-04-15T11:59:07;6.20;;;2.10;;
30157;SDS011;21203;-33.912;151.178;2023-04-15T12:01:38;6.60;;;2.17;;
30157;SDS011;21203;-33.912;151.178;2023-04-15T12:04:13;6.80;;;1.92;;
30157;SDS011;21203;-33.912;151.178;2023-04-15T12:06:48;10.58;;;2.47;;
30157;SDS011;21203;-33.912;151.178;2023-04-15T12:09:19;5.35;;;2.00;;
30157;SDS011;21203;-33.912;151.178;2023-04-15T12:11:50;4.67;;;1.72;;
30157;SDS011;21203;-33.912;151.178;2023-04-15T12:19:33;7.50;;;2.00;;
30157;SDS011;21203;-33.912;151.178;2023-04-15T12:22:15;7.53;;;1.87;;
30157;SDS011;21203;-33.912;151.178;2023-04-15T12:24:46;6.08;;;2.00;;
30157;SDS011;21203;-33.912;151.178;2023-04-15T12:27:17;6.62;;;1.90;;
30157;SDS011;21203;-33.912;151.178;2023-04-15T12:29:48;4.12;;;2.00;;
30157;SDS011;21203;-33.912;151.178;2023-04-15T12:32:18;6.80;;;2.10;;
30157;SDS011;21203;-33.912;151.178;2023-04-15T12:34:49;4.95;;;1.85;;
30157;SDS011;21203;-33.912;151.178;2023-04-15T12:37:20;5.95;;;2.17;;
30157;SDS011;21203;-33.912;151.178;2023-04-15T12:39:51;5.03;;;2.10;;
30157;SDS011;21203;-33.912;151.178;2023-04-15T12:42:22;6.20;;;1.60;;
30157;SDS011;21203;-33.912;151.178;2023-04-15T12:44:53;5.03;;;1.82;;
30157;SDS011;21203;-33.912;151.178;2023-04-15T12:47:23;7.03;;;1.70;;
30157;SDS011;21203;-33.912;151.178;2023-04-15T12:49:54;5.42;;;1.90;;
30157;SDS011;21203;-33.912;151.178;2023-04-15T12:52:24;6.08;;;1.90;;
30157;SDS011;21203;-33.912;151.178;2023-04-15T12:54:55;4.35;;;1.75;;
30157;SDS011;21203;-33.912;151.178;2023-04-15T12:57:26;4.00;;;1.90;;
30157;SDS011;21203;-33.912;151.178;2023-04-15T12:59:57;5.42;;;1.80;;
30157;SDS011;21203;-33.912;151.178;2023-04-15T13:02:27;4.62;;;1.90;;
30157;SDS011;21203;-33.912;151.178;2023-04-15T13:04:58;4.67;;;1.62;;
30157;SDS011;21203;-33.912;151.178;2023-04-15T13:07:28;6.12;;;1.90;;
30157;SDS011;21203;-33.912;151.178;2023-04-15T13:09:59;3.52;;;1.80;;
30157;SDS011;21203;-33.912;151.178;2023-04-15T13:12:30;16.12;;;1.62;;
30157;SDS011;21203;-33.912;151.178;2023-04-15T13:15:02;3.22;;;1.47;;
30157;SDS011;21203;-33.912;151.178;2023-04-15T13:17:32;7.28;;;2.08;;
30157;SDS011;21203;-33.912;151.178;2023-04-15T13:20:03;4.55;;;1.57;;
30157;SDS011;21203;-33.912;151.178;2023-04-15T13:22:34;5.10;;;1.85;;
30157;SDS011;21203;-33.912;151.178;2023-04-15T13:25:07;5.30;;;1.57;;
30157;SDS011;21203;-33.912;151.178;2023-04-15T13:27:41;4.17;;;1.35;;
30157;SDS011;21203;-33.912;151.178;2023-04-15T13:30:23;4.17;;;1.67;;
30157;SDS011;21203;-33.912;151.178;2023-04-15T13:32:59;3.20;;;1.47;;
30157;SDS011;21203;-33.912;151.178;2023-04-15T13:35:39;3.62;;;1.60;;
30157;SDS011;21203;-33.912;151.178;2023-04-15T13:38:12;3.75;;;1.72;;
30157;SDS011;21203;-33.912;151.178;2023-04-15T13:40:42;4.20;;;1.80;;
30157;SDS011;21203;-33.912;151.178;2023-04-15T13:43:12;3.77;;;1.35;;
30157;SDS011;21203;-33.912;151.178;2023-04-15T13:45:43;4.70;;;1.60;;
30157;SDS011;21203;-33.912;151.178;2023-04-15T13:48:14;2.12;;;1.42;;
30157;SDS011;21203;-33.912;151.178;2023-04-15T13:50:44;3.85;;;1.55;;
30157;SDS011;21203;-33.912;151.178;2023-04-15T13:53:15;5.03;;;1.40;;
30157;SDS011;21203;-33.912;151.178;2023-04-15T13:55:45;4.08;;;1.70;;
30157;SDS011;21203;-33.912;151.178;2023-04-15T13:58:16;4.10;;;1.35;;
30157;SDS011;21203;-33.912;151.178;2023-04-15T14:00:46;8.43;;;1.60;;
30157;SDS011;21203;-33.912;151.178;2023-04-15T14:03:17;2.60;;;1.37;;
30157;SDS011;21203;-33.912;151.178;2023-04-15T14:05:47;3.92;;;1.40;;
30157;SDS011;21203;-33.912;151.178;2023-04-15T14:08:19;3.98;;;1.50;;
30157;SDS011;21203;-33.912;151.178;2023-04-15T14:10:50;6.62;;;1.75;;
30157;SDS011;21203;-33.912;151.178;2023-04-15T14:13:20;2.08;;;1.15;;
30157;SDS011;21203;-33.912;151.178;2023-04-15T14:15:51;3.10;;;1.47;;
30157;SDS011;21203;-33.912;151.178;2023-04-15T14:18:21;5.37;;;1.40;;
30157;SDS011;21203;-33.912;151.178;2023-04-15T14:20:52;4.55;;;1.40;;
30157;SDS011;21203;-33.912;151.178;2023-04-15T14:23:22;2.02;;;1.22;;
30157;SDS011;21203;-33.912;151.178;2023-04-15T14:25:53;3.80;;;1.30;;
30157;SDS011;21203;-33.912;151.178;2023-04-15T14:28:23;3.75;;;1.25;;
30157;SDS011;21203;-33.912;151.178;2023-04-15T14:30:54;5.25;;;1.70;;
30157;SDS011;21203;-33.912;151.178;2023-04-15T14:33:24;2.37;;;1.47;;
30157;SDS011;21203;-33.912;151.178;2023-04-15T14:35:55;7.40;;;1.85;;
30157;SDS011;21203;-33.912;151.178;2023-04-15T14:38:26;4.12;;;1.37;;
30157;SDS011;21203;-33.912;151.178;2023-04-15T14:40:56;5.53;;;1.60;;
30157;SDS011;21203;-33.912;151.178;2023-04-15T14:43:26;5.03;;;1.75;;
30157;SDS011;21203;-33.912;151.178;2023-04-15T14:45:57;5.95;;;1.40;;
30157;SDS011;21203;-33.912;151.178;2023-04-15T14:48:27;4.00;;;1.72;;
30157;SDS011;21203;-33.912;151.178;2023-04-15T14:50:58;7.30;;;1.98;;
30157;SDS011;21203;-33.912;151.178;2023-04-15T14:53:29;3.02;;;1.47;;
30157;SDS011;21203;-33.912;151.178;2023-04-15T14:55:59;6.47;;;1.80;;
30157;SDS011;21203;-33.912;151.178;2023-04-15T14:58:30;4.97;;;1.55;;
30157;SDS011;21203;-33.912;151.178;2023-04-15T15:01:00;5.45;;;1.67;;
30157;SDS011;21203;-33.912;151.178;2023-04-15T15:03:31;3.90;;;1.50;;
30157;SDS011;21203;-33.912;151.178;2023-04-15T15:06:02;8.03;;;1.62;;